createdAt,value
2022-12-31T00:00:23.322Z,96.79
2022-12-31T00:01:23.279Z,96.69
2022-12-31T00:02:23.358Z,96.79
2022-12-31T00:03:23.361Z,96.69
2022-12-31T00:04:23.267Z,96.75
2022-12-31T00:05:23.265Z,96.69
2022-12-31T00:06:23.246Z,96.23
2022-12-31T00:07:23.240Z,96.18
2022-12-31T00:08:23.222Z,96.14
2022-12-31T00:09:23.219Z,95.52
2022-12-31T00:10:23.203Z,95.52
2022-12-31T00:11:23.215Z,96.14
2022-12-31T00:12:23.224Z,96.14
2022-12-31T00:13:23.174Z,96.14
2022-12-31T00:14:24.176Z,95.73
2022-12-31T00:15:23.170Z,96.23
2022-12-31T00:16:23.214Z,96.23
2022-12-31T00:17:23.169Z,96.14
2022-12-31T00:18:23.160Z,96.14
2022-12-31T00:19:23.151Z,95.93
2022-12-31T00:20:23.145Z,95.83
2022-12-31T00:21:23.128Z,96.23
2022-12-31T00:22:23.122Z,96.44
2022-12-31T00:23:23.112Z,96.14
2022-12-31T00:24:23.106Z,96.03
2022-12-31T00:25:23.091Z,96.23
2022-12-31T00:27:11.821Z,96.14
2022-12-31T00:28:11.809Z,96.54
2022-12-31T00:29:11.814Z,96.34
2022-12-31T00:30:11.793Z,96.34
2022-12-31T00:31:11.827Z,96.64
2022-12-31T00:32:11.779Z,97.16
2022-12-31T00:33:11.772Z,96.84
2022-12-31T00:34:11.758Z,96.64
2022-12-31T00:35:11.769Z,97.16
2022-12-31T00:36:11.752Z,97.16
2022-12-31T00:37:13.708Z,97.77
2022-12-31T00:38:12.823Z,97.46
2022-12-31T00:39:13.810Z,97.31
2022-12-31T00:40:12.813Z,97.62
2022-12-31T00:41:12.789Z,97.77
2022-12-31T00:42:12.805Z,97.66
2022-12-31T00:43:12.791Z,97.56
2022-12-31T00:44:12.769Z,97.97
2022-12-31T00:45:12.763Z,97.97
2022-12-31T00:46:12.816Z,98.27
2022-12-31T00:47:12.759Z,98.27
2022-12-31T00:48:12.738Z,98.27
2022-12-31T00:49:12.729Z,98.38
2022-12-31T00:50:12.730Z,98.48
2022-12-31T00:51:12.709Z,98.58
2022-12-31T00:52:12.708Z,98.38
2022-12-31T00:53:12.689Z,98.48
2022-12-31T00:54:13.704Z,98.23
2022-12-31T00:55:14.261Z,97.87
2022-12-31T00:56:12.673Z,98.07
2022-12-31T00:57:13.196Z,98.18
2022-12-31T00:58:16.210Z,97.62
2022-12-31T00:59:12.668Z,97.82
2022-12-31T01:00:12.640Z,97.82
2022-12-31T01:01:12.844Z,97.52
2022-12-31T01:02:12.906Z,97.72
2022-12-31T01:03:12.682Z,97.92
2022-12-31T01:04:13.258Z,97.41
2022-12-31T01:05:12.591Z,96.60
2022-12-31T01:06:12.588Z,96.80
2022-12-31T01:07:12.575Z,96.70
2022-12-31T01:08:12.576Z,96.70
2022-12-31T01:09:12.579Z,96.19
2022-12-31T01:10:12.563Z,96.09
2022-12-31T01:11:12.540Z,96.04
2022-12-31T01:12:12.538Z,95.98
2022-12-31T01:13:12.550Z,96.04
2022-12-31T01:14:12.524Z,95.74
2022-12-31T01:15:12.520Z,95.33
2022-12-31T01:16:12.548Z,95.13
2022-12-31T01:17:12.513Z,95.53
2022-12-31T01:18:13.188Z,95.64
2022-12-31T01:19:12.549Z,95.33
2022-12-31T01:20:12.483Z,95.43
2022-12-31T01:21:12.489Z,95.43
2022-12-31T01:22:12.465Z,95.43
2022-12-31T01:23:14.187Z,95.43
2022-12-31T01:24:12.456Z,95.23
2022-12-31T01:25:12.432Z,94.42
2022-12-31T01:26:12.455Z,95.13
2022-12-31T01:27:12.411Z,94.42
2022-12-31T01:28:12.423Z,94.62
2022-12-31T01:29:14.280Z,93.50
2022-12-31T01:30:12.390Z,93.80
2022-12-31T01:31:12.414Z,93.90
2022-12-31T01:32:12.389Z,93.90
2022-12-31T01:33:12.361Z,93.50
2022-12-31T01:34:16.197Z,93.60
2022-12-31T01:35:12.361Z,93.15
2022-12-31T01:36:12.362Z,93.96
2022-12-31T01:37:12.331Z,93.90
2022-12-31T01:38:12.318Z,92.54
2022-12-31T01:39:12.321Z,93.76
2022-12-31T01:40:12.291Z,93.25
2022-12-31T01:41:13.295Z,93.35
2022-12-31T01:42:12.303Z,93.55
2022-12-31T01:43:12.277Z,93.45
2022-12-31T01:44:12.298Z,93.25
2022-12-31T01:45:12.265Z,92.99
2022-12-31T01:46:12.292Z,93.76
2022-12-31T01:47:12.242Z,93.45
2022-12-31T01:48:12.241Z,93.45
2022-12-31T01:49:12.242Z,93.25
2022-12-31T01:50:13.233Z,93.96
2022-12-31T01:51:12.219Z,93.96
2022-12-31T01:52:12.217Z,93.71
2022-12-31T01:53:12.208Z,93.82
2022-12-31T01:54:12.201Z,94.12
2022-12-31T01:55:12.187Z,92.60
2022-12-31T01:56:12.180Z,93.21
2022-12-31T01:57:12.174Z,92.60
2022-12-31T01:58:12.168Z,93.86
2022-12-31T01:59:12.162Z,92.94
2022-12-31T02:00:12.145Z,92.54
2022-12-31T02:01:12.165Z,93.62
2022-12-31T02:02:12.736Z,93.45
2022-12-31T02:03:12.175Z,93.62
2022-12-31T02:04:12.115Z,93.45
2022-12-31T02:05:12.117Z,93.51
2022-12-31T02:06:12.099Z,93.92
2022-12-31T02:07:12.103Z,93.82
2022-12-31T02:08:12.077Z,93.51
2022-12-31T02:09:12.089Z,93.51
2022-12-31T02:10:12.117Z,93.92
2022-12-31T02:11:12.081Z,93.41
2022-12-31T02:12:12.063Z,93.25
2022-12-31T02:13:12.055Z,92.40
2022-12-31T02:14:12.051Z,94.12
2022-12-31T02:15:12.033Z,93.31
2022-12-31T02:16:12.080Z,94.02
2022-12-31T02:17:12.028Z,93.71
2022-12-31T02:18:12.007Z,92.60
2022-12-31T02:19:11.996Z,93.10
2022-12-31T02:20:12.001Z,92.90
2022-12-31T02:21:11.979Z,93.92
2022-12-31T02:22:11.969Z,92.60
2022-12-31T02:23:11.965Z,92.49
2022-12-31T02:24:11.954Z,92.09
2022-12-31T02:25:12.011Z,92.49
2022-12-31T02:26:11.955Z,92.70
2022-12-31T02:27:12.883Z,93.62
2022-12-31T02:28:11.928Z,94.12
2022-12-31T02:29:12.667Z,92.70
2022-12-31T02:30:12.930Z,92.09
2022-12-31T02:31:11.921Z,93.01
2022-12-31T02:32:12.633Z,92.55
2022-12-31T02:33:12.888Z,92.45
2022-12-31T02:34:11.873Z,92.04
2022-12-31T02:35:11.872Z,92.49
2022-12-31T02:36:11.855Z,93.77
2022-12-31T02:37:11.856Z,93.67
2022-12-31T02:38:11.849Z,92.55
2022-12-31T02:39:11.828Z,93.01
2022-12-31T02:40:11.828Z,92.19
2022-12-31T02:41:11.813Z,92.04
2022-12-31T02:42:11.817Z,92.14
2022-12-31T02:43:11.787Z,91.64
2022-12-31T02:44:12.787Z,91.64
2022-12-31T02:45:11.804Z,92.14
2022-12-31T02:46:11.875Z,92.14
2022-12-31T02:47:11.760Z,92.25
2022-12-31T02:48:12.291Z,92.14
2022-12-31T02:49:11.746Z,91.13
2022-12-31T02:50:11.749Z,91.33
2022-12-31T02:51:11.751Z,91.74
2022-12-31T02:52:11.729Z,92.35
2022-12-31T02:54:18.026Z,91.33
2022-12-31T02:55:17.986Z,91.43
2022-12-31T02:56:17.984Z,90.83
2022-12-31T02:57:17.982Z,91.64
2022-12-31T02:58:17.961Z,91.03
2022-12-31T02:59:17.960Z,91.39
2022-12-31T03:00:17.951Z,91.09
2022-12-31T03:01:18.151Z,91.49
2022-12-31T03:02:18.965Z,91.39
2022-12-31T03:03:19.026Z,91.09
2022-12-31T03:04:19.026Z,90.99
2022-12-31T03:05:19.024Z,91.09
2022-12-31T03:06:19.001Z,91.49
2022-12-31T03:07:18.991Z,90.99
2022-12-31T03:08:18.992Z,90.33
2022-12-31T03:09:19.866Z,91.19
2022-12-31T03:10:18.966Z,90.99
2022-12-31T03:11:18.956Z,90.99
2022-12-31T03:12:18.946Z,90.88
2022-12-31T03:13:18.961Z,91.09
2022-12-31T03:14:18.943Z,90.88
2022-12-31T03:15:18.926Z,89.87
2022-12-31T03:16:19.922Z,90.99
2022-12-31T03:17:18.928Z,90.88
2022-12-31T03:18:18.913Z,90.78
2022-12-31T03:19:18.898Z,91.19
2022-12-31T03:20:18.903Z,90.88
2022-12-31T03:21:18.879Z,90.78
2022-12-31T03:22:18.874Z,90.88
2022-12-31T03:23:18.867Z,89.87
2022-12-31T03:24:18.878Z,90.23
2022-12-31T03:25:18.848Z,90.17
2022-12-31T03:26:18.837Z,89.83
2022-12-31T03:27:18.829Z,89.87
2022-12-31T03:28:18.823Z,89.72
2022-12-31T03:29:18.815Z,89.97
2022-12-31T03:30:18.821Z,89.83
2022-12-31T03:31:18.990Z,89.26
2022-12-31T03:32:18.788Z,89.11
2022-12-31T03:33:18.785Z,88.81
2022-12-31T03:34:18.773Z,89.42
2022-12-31T03:35:18.772Z,89.22
2022-12-31T03:36:18.758Z,89.83
2022-12-31T03:37:18.751Z,89.11
2022-12-31T03:38:18.748Z,89.15
2022-12-31T03:39:18.735Z,87.99
2022-12-31T03:40:18.740Z,88.81
2022-12-31T03:41:18.710Z,89.22
2022-12-31T03:42:18.712Z,88.71
2022-12-31T03:43:18.709Z,88.60
2022-12-31T03:44:19.455Z,87.69
2022-12-31T03:45:18.691Z,88.10
2022-12-31T03:46:18.703Z,88.81
2022-12-31T03:47:18.670Z,88.87
2022-12-31T03:48:18.681Z,88.71
2022-12-31T03:49:18.662Z,88.71
2022-12-31T03:50:18.672Z,88.71
2022-12-31T03:51:18.646Z,88.60
2022-12-31T03:52:18.641Z,87.79
2022-12-31T03:53:18.633Z,87.79
2022-12-31T03:54:18.622Z,88.10
2022-12-31T03:55:18.605Z,88.16
2022-12-31T03:56:18.615Z,87.38
2022-12-31T03:57:18.595Z,88.20
2022-12-31T03:58:18.588Z,88.10
2022-12-31T03:59:18.575Z,88.67
2022-12-31T04:00:18.578Z,88.56
2022-12-31T04:01:18.696Z,87.65
2022-12-31T04:02:20.925Z,87.79
2022-12-31T04:03:20.577Z,88.50
2022-12-31T04:04:18.565Z,87.49
2022-12-31T04:05:19.378Z,87.89
2022-12-31T04:06:18.517Z,88.16
2022-12-31T04:07:18.524Z,88.60
2022-12-31T04:08:18.512Z,87.49
2022-12-31T04:09:19.463Z,87.34
2022-12-31T04:10:18.494Z,87.04
2022-12-31T04:11:21.012Z,87.38
2022-12-31T04:12:19.503Z,88.56
2022-12-31T04:13:18.460Z,88.06
2022-12-31T04:14:18.465Z,87.95
2022-12-31T04:15:18.472Z,87.95
2022-12-31T04:16:18.480Z,87.95
2022-12-31T04:17:18.444Z,87.65
2022-12-31T04:18:18.439Z,88.06
2022-12-31T04:19:18.430Z,88.10
2022-12-31T04:20:18.413Z,87.85
2022-12-31T04:21:18.409Z,87.75
2022-12-31T04:22:18.393Z,87.99
2022-12-31T04:23:18.419Z,88.06
2022-12-31T04:24:18.377Z,88.16
2022-12-31T04:25:18.375Z,87.55
2022-12-31T04:26:18.344Z,87.95
2022-12-31T04:27:19.339Z,88.06
2022-12-31T04:28:18.345Z,87.95
2022-12-31T04:29:18.341Z,87.95
2022-12-31T04:30:18.329Z,87.95
2022-12-31T04:31:18.340Z,87.24
2022-12-31T04:32:18.314Z,86.94
2022-12-31T04:33:18.304Z,87.75
2022-12-31T04:34:18.289Z,87.55
2022-12-31T04:35:18.279Z,87.95
2022-12-31T04:36:18.275Z,87.65
2022-12-31T04:37:18.275Z,87.95
2022-12-31T04:38:18.262Z,88.16
2022-12-31T04:39:18.253Z,87.55
2022-12-31T04:40:18.238Z,87.04
2022-12-31T04:41:18.239Z,87.14
2022-12-31T04:42:18.308Z,87.45
2022-12-31T04:43:18.216Z,87.30
2022-12-31T04:44:18.209Z,87.00
2022-12-31T04:45:18.209Z,86.94
2022-12-31T04:46:18.241Z,86.94
2022-12-31T04:47:23.411Z,87.00
2022-12-31T04:48:20.175Z,87.00
2022-12-31T04:49:18.163Z,87.14
2022-12-31T04:50:18.169Z,86.43
2022-12-31T04:51:18.159Z,87.10
2022-12-31T04:52:18.146Z,87.75
2022-12-31T04:53:18.140Z,87.85
2022-12-31T04:54:18.131Z,87.75
2022-12-31T04:55:18.117Z,87.65
2022-12-31T04:56:18.133Z,87.04
2022-12-31T04:57:18.103Z,87.24
2022-12-31T04:58:18.100Z,86.94
2022-12-31T04:59:18.128Z,87.51
2022-12-31T05:00:18.093Z,87.04
2022-12-31T05:01:18.160Z,87.24
2022-12-31T05:02:18.261Z,87.14
2022-12-31T05:03:18.092Z,87.14
2022-12-31T05:04:18.047Z,87.20
2022-12-31T05:05:18.048Z,87.04
2022-12-31T05:06:18.037Z,87.00
2022-12-31T05:07:18.025Z,87.24
2022-12-31T05:08:18.116Z,86.90
2022-12-31T05:09:18.020Z,87.51
2022-12-31T05:10:18.007Z,87.45
2022-12-31T05:11:17.996Z,87.00
2022-12-31T05:12:17.982Z,87.14
2022-12-31T05:13:17.973Z,87.30
2022-12-31T05:14:17.978Z,88.01
2022-12-31T05:15:17.959Z,88.01
2022-12-31T05:16:18.016Z,88.26
2022-12-31T05:17:17.952Z,87.95
2022-12-31T05:18:17.929Z,88.67
2022-12-31T05:19:18.079Z,88.36
2022-12-31T05:20:17.923Z,88.76
2022-12-31T05:21:17.915Z,88.56
2022-12-31T05:22:17.904Z,88.42
2022-12-31T05:23:17.893Z,89.13
2022-12-31T05:24:17.891Z,88.56
2022-12-31T05:25:17.889Z,88.67
2022-12-31T05:26:17.893Z,88.56
2022-12-31T05:27:17.869Z,89.62
2022-12-31T05:28:18.411Z,89.68
2022-12-31T05:29:17.852Z,89.58
2022-12-31T05:30:17.839Z,89.52
2022-12-31T05:31:17.890Z,88.81
2022-12-31T05:32:17.830Z,89.48
2022-12-31T05:33:17.813Z,89.31
2022-12-31T05:34:17.809Z,89.62
2022-12-31T05:35:17.809Z,89.68
2022-12-31T05:36:17.791Z,88.16
2022-12-31T05:37:17.790Z,88.87
2022-12-31T05:38:17.804Z,88.36
2022-12-31T05:39:17.770Z,87.85
2022-12-31T05:40:17.776Z,88.26
2022-12-31T05:41:17.775Z,89.28
2022-12-31T05:42:17.740Z,88.42
2022-12-31T05:43:17.729Z,87.95
2022-12-31T05:44:17.724Z,87.85
2022-12-31T05:45:17.730Z,88.56
2022-12-31T05:46:17.740Z,87.24
2022-12-31T05:47:17.696Z,88.42
2022-12-31T05:48:17.695Z,88.73
2022-12-31T05:49:17.693Z,88.97
2022-12-31T05:50:17.674Z,88.01
2022-12-31T05:51:17.676Z,88.06
2022-12-31T05:52:17.658Z,88.52
2022-12-31T05:53:17.644Z,87.24
2022-12-31T05:54:17.639Z,87.92
2022-12-31T05:55:17.641Z,88.32
2022-12-31T05:56:17.633Z,87.81
2022-12-31T05:57:17.623Z,87.81
2022-12-31T05:58:17.627Z,86.80
2022-12-31T05:59:17.610Z,86.90
2022-12-31T06:00:17.619Z,87.00
2022-12-31T06:01:17.629Z,87.20
2022-12-31T06:02:17.616Z,87.61
2022-12-31T06:03:18.733Z,87.51
2022-12-31T06:04:17.572Z,87.81
2022-12-31T06:05:22.478Z,87.20
2022-12-31T06:06:19.589Z,87.20
2022-12-31T06:07:17.541Z,87.20
2022-12-31T06:08:17.535Z,87.57
2022-12-31T06:09:17.527Z,87.57
2022-12-31T06:10:17.554Z,86.76
2022-12-31T06:11:17.520Z,86.19
2022-12-31T06:12:17.500Z,87.06
2022-12-31T06:13:17.505Z,87.20
2022-12-31T06:14:17.485Z,87.26
2022-12-31T06:15:17.993Z,86.96
2022-12-31T06:16:17.575Z,87.06
2022-12-31T06:17:17.473Z,86.96
2022-12-31T06:18:17.456Z,86.76
2022-12-31T06:19:17.451Z,85.44
2022-12-31T06:20:17.451Z,86.76
2022-12-31T06:21:17.437Z,86.96
2022-12-31T06:22:17.422Z,86.29
2022-12-31T06:23:17.412Z,86.55
2022-12-31T06:24:17.434Z,87.06
2022-12-31T06:25:17.402Z,85.84
2022-12-31T06:26:17.399Z,84.93
2022-12-31T06:27:17.381Z,85.84
2022-12-31T06:28:20.392Z,85.03
2022-12-31T06:29:18.515Z,85.03
2022-12-31T06:30:17.355Z,86.00
2022-12-31T06:31:17.384Z,85.53
2022-12-31T06:32:17.349Z,85.24
2022-12-31T06:33:17.333Z,85.50
2022-12-31T06:34:17.331Z,85.09
2022-12-31T06:35:17.317Z,85.74
2022-12-31T06:36:17.313Z,85.19
2022-12-31T06:37:17.322Z,85.44
2022-12-31T06:38:17.305Z,85.60
2022-12-31T06:39:17.277Z,85.09
2022-12-31T06:40:17.296Z,85.60
2022-12-31T06:41:17.267Z,84.99
2022-12-31T06:42:17.259Z,85.09
2022-12-31T06:43:17.259Z,85.09
2022-12-31T06:44:17.933Z,85.30
2022-12-31T06:45:17.242Z,85.39
2022-12-31T06:46:17.320Z,85.50
2022-12-31T06:47:17.225Z,84.89
2022-12-31T06:48:17.218Z,84.28
2022-12-31T06:49:17.206Z,84.48
2022-12-31T06:50:17.207Z,84.08
2022-12-31T06:51:17.743Z,83.98
2022-12-31T06:52:18.186Z,83.87
2022-12-31T06:53:17.177Z,85.09
2022-12-31T06:54:17.168Z,84.78
2022-12-31T06:55:17.161Z,84.48
2022-12-31T06:56:17.166Z,84.78
2022-12-31T06:57:17.152Z,84.78
2022-12-31T06:58:17.133Z,84.99
2022-12-31T06:59:17.135Z,84.28
2022-12-31T07:00:17.115Z,84.08
2022-12-31T07:01:17.241Z,84.89
2022-12-31T07:02:17.164Z,84.78
2022-12-31T07:03:17.123Z,84.89
2022-12-31T07:04:17.105Z,85.09
2022-12-31T07:05:17.080Z,83.77
2022-12-31T07:06:17.075Z,84.08
2022-12-31T07:07:17.059Z,84.48
2022-12-31T07:08:17.067Z,84.78
2022-12-31T07:09:17.053Z,85.09
2022-12-31T07:10:17.053Z,84.99
2022-12-31T07:11:17.040Z,84.38
2022-12-31T07:12:17.021Z,84.89
2022-12-31T07:13:17.023Z,84.48
2022-12-31T07:14:17.021Z,84.99
2022-12-31T07:15:17.008Z,84.99
2022-12-31T07:16:17.068Z,84.99
2022-12-31T07:17:17.032Z,84.08
2022-12-31T07:18:16.987Z,84.95
2022-12-31T07:19:16.979Z,84.89
2022-12-31T07:20:16.997Z,83.98
2022-12-31T07:21:17.937Z,84.18
2022-12-31T07:22:16.947Z,84.28
2022-12-31T07:23:17.061Z,84.28
2022-12-31T07:24:16.940Z,84.99
2022-12-31T07:25:18.396Z,85.09
2022-12-31T07:26:16.929Z,84.69
2022-12-31T07:27:16.910Z,84.28
2022-12-31T07:28:17.436Z,84.38
2022-12-31T07:29:16.906Z,85.50
2022-12-31T07:30:16.948Z,84.89
2022-12-31T07:31:16.977Z,84.99
2022-12-31T07:32:16.882Z,84.89
2022-12-31T07:33:16.880Z,84.99
2022-12-31T07:34:16.852Z,84.44
2022-12-31T07:35:16.860Z,85.19
2022-12-31T07:36:16.849Z,84.99
2022-12-31T07:37:16.835Z,85.19
2022-12-31T07:38:16.952Z,84.78
2022-12-31T07:39:17.437Z,85.30
2022-12-31T07:40:16.812Z,85.30
2022-12-31T07:41:16.825Z,84.69
2022-12-31T07:42:16.789Z,84.04
2022-12-31T07:43:16.788Z,84.28
2022-12-31T07:44:16.786Z,84.55
2022-12-31T07:45:16.783Z,84.75
2022-12-31T07:46:16.803Z,84.85
2022-12-31T07:47:16.753Z,83.94
2022-12-31T07:48:16.747Z,84.24
2022-12-31T07:49:16.740Z,84.95
2022-12-31T07:50:16.756Z,84.95
2022-12-31T07:51:16.717Z,84.75
2022-12-31T07:52:16.732Z,84.64
2022-12-31T07:53:16.710Z,84.75
2022-12-31T07:54:16.704Z,84.64
2022-12-31T07:55:17.449Z,84.64
2022-12-31T07:56:16.678Z,84.64
2022-12-31T07:57:16.668Z,84.04
2022-12-31T07:58:16.684Z,84.64
2022-12-31T07:59:22.448Z,84.14
2022-12-31T08:00:18.650Z,84.24
2022-12-31T08:01:16.710Z,84.41
2022-12-31T08:02:17.528Z,84.34
2022-12-31T08:03:16.632Z,84.55
2022-12-31T08:04:16.620Z,84.44
2022-12-31T08:05:16.611Z,84.75
2022-12-31T08:06:16.602Z,84.24
2022-12-31T08:07:16.601Z,84.64
2022-12-31T08:08:16.584Z,84.04
2022-12-31T08:09:16.575Z,83.53
2022-12-31T08:10:18.282Z,84.41
2022-12-31T08:11:17.556Z,84.50
2022-12-31T08:12:16.558Z,84.61
2022-12-31T08:13:16.548Z,83.90
2022-12-31T08:14:16.538Z,82.58
2022-12-31T08:15:17.523Z,83.59
2022-12-31T08:16:16.719Z,82.78
2022-12-31T08:17:16.515Z,83.86
2022-12-31T08:18:17.454Z,83.80
2022-12-31T08:19:16.506Z,83.09
2022-12-31T08:20:16.498Z,84.30
2022-12-31T08:21:16.491Z,83.29
2022-12-31T08:22:16.482Z,83.29
2022-12-31T08:23:16.463Z,82.78
2022-12-31T08:24:16.465Z,83.55
2022-12-31T08:25:16.471Z,83.15
2022-12-31T08:26:16.438Z,82.68
2022-12-31T08:27:16.454Z,83.15
2022-12-31T08:28:16.421Z,83.25
2022-12-31T08:29:16.424Z,82.95
2022-12-31T08:30:16.432Z,82.84
2022-12-31T08:31:16.463Z,83.09
2022-12-31T08:32:16.393Z,83.29
2022-12-31T08:33:16.383Z,83.09
2022-12-31T08:34:16.383Z,83.25
2022-12-31T08:35:17.052Z,81.83
2022-12-31T08:36:16.402Z,82.44
2022-12-31T08:37:16.366Z,83.25
2022-12-31T08:38:16.349Z,83.04
2022-12-31T08:39:16.342Z,82.34
2022-12-31T08:40:16.336Z,82.70
2022-12-31T08:41:16.332Z,83.15
2022-12-31T08:42:16.319Z,82.95
2022-12-31T08:43:16.311Z,82.95
2022-12-31T08:44:16.301Z,82.84
2022-12-31T08:45:17.036Z,82.75
2022-12-31T08:46:19.964Z,81.93
2022-12-31T08:47:16.284Z,83.15
2022-12-31T08:48:16.290Z,82.75
2022-12-31T08:49:17.091Z,82.84
2022-12-31T08:50:16.275Z,82.75
2022-12-31T08:51:17.037Z,82.44
2022-12-31T08:52:16.250Z,81.43
2022-12-31T08:53:16.245Z,81.93
2022-12-31T08:54:16.237Z,82.50
2022-12-31T08:55:16.214Z,81.99
2022-12-31T08:56:16.221Z,82.60
2022-12-31T08:57:16.235Z,82.60
2022-12-31T08:58:20.558Z,82.10
2022-12-31T08:59:16.197Z,81.93
2022-12-31T09:00:16.362Z,82.54
2022-12-31T09:01:16.215Z,81.29
2022-12-31T09:02:16.211Z,82.60
2022-12-31T09:03:16.162Z,81.49
2022-12-31T09:04:16.235Z,82.30
2022-12-31T09:05:16.138Z,82.30
2022-12-31T09:06:16.136Z,81.79
2022-12-31T09:07:16.148Z,82.34
2022-12-31T09:08:16.124Z,82.10
2022-12-31T09:09:16.150Z,83.35
2022-12-31T09:10:16.247Z,82.20
2022-12-31T09:11:22.532Z,82.50
2022-12-31T09:12:18.090Z,81.69
2022-12-31T09:13:16.084Z,82.40
2022-12-31T09:14:16.093Z,82.06
2022-12-31T09:15:16.061Z,82.46
2022-12-31T09:16:16.082Z,81.76
2022-12-31T09:17:16.126Z,82.06
2022-12-31T09:18:16.043Z,81.09
2022-12-31T09:19:17.047Z,80.64
2022-12-31T09:20:16.085Z,80.13
2022-12-31T09:21:16.052Z,81.55
2022-12-31T09:22:16.000Z,81.31
2022-12-31T09:23:16.003Z,81.11
2022-12-31T09:24:15.992Z,80.60
2022-12-31T09:25:15.999Z,80.00
2022-12-31T09:26:15.978Z,79.79
2022-12-31T09:27:15.981Z,80.10
2022-12-31T09:28:16.008Z,79.90
2022-12-31T09:29:15.959Z,79.55
2022-12-31T09:30:17.547Z,80.66
2022-12-31T09:31:15.990Z,79.35
2022-12-31T09:32:15.921Z,78.17
2022-12-31T09:33:15.914Z,79.55
2022-12-31T09:34:15.924Z,79.79
2022-12-31T09:35:15.906Z,78.88
2022-12-31T09:36:15.894Z,79.90
2022-12-31T09:37:15.889Z,80.00
2022-12-31T09:38:15.883Z,80.30
2022-12-31T09:39:15.869Z,80.40
2022-12-31T09:40:15.867Z,80.30
2022-12-31T09:41:15.863Z,79.90
2022-12-31T09:42:15.852Z,80.40
2022-12-31T09:43:15.835Z,80.40
2022-12-31T09:44:15.824Z,80.04
2022-12-31T09:45:15.858Z,79.79
2022-12-31T09:46:15.851Z,79.93
2022-12-31T09:47:15.806Z,79.29
2022-12-31T09:48:15.802Z,78.58
2022-12-31T09:49:15.800Z,78.78
2022-12-31T09:50:15.790Z,80.30
2022-12-31T09:51:19.161Z,80.34
2022-12-31T09:52:17.577Z,79.90
2022-12-31T09:53:15.759Z,80.00
2022-12-31T09:54:16.488Z,79.29
2022-12-31T09:55:15.745Z,78.17
2022-12-31T09:56:15.756Z,79.19
2022-12-31T09:57:16.631Z,78.78
2022-12-31T09:58:15.722Z,79.39
2022-12-31T09:59:15.728Z,78.04
2022-12-31T10:00:15.701Z,78.88
2022-12-31T10:01:15.777Z,78.58
2022-12-31T10:02:16.643Z,78.28
2022-12-31T10:03:15.785Z,79.49
2022-12-31T10:04:15.697Z,78.75
2022-12-31T10:05:16.571Z,79.55
2022-12-31T10:06:15.664Z,79.69
2022-12-31T10:07:15.653Z,79.29
2022-12-31T10:08:16.491Z,79.05
2022-12-31T10:09:15.650Z,77.64
2022-12-31T10:10:15.624Z,78.04
2022-12-31T10:11:15.606Z,78.64
2022-12-31T10:12:15.640Z,79.35
2022-12-31T10:13:15.595Z,80.00
2022-12-31T10:14:17.483Z,79.66
2022-12-31T10:15:15.569Z,78.99
2022-12-31T10:16:15.588Z,79.29
2022-12-31T10:17:15.557Z,77.03
2022-12-31T10:18:15.599Z,78.55
2022-12-31T10:19:15.562Z,79.19
2022-12-31T10:20:15.542Z,78.17
2022-12-31T10:21:15.545Z,78.85
2022-12-31T10:22:16.063Z,77.64
2022-12-31T10:23:18.070Z,78.04
2022-12-31T10:24:15.507Z,76.93
2022-12-31T10:25:15.544Z,77.84
2022-12-31T10:26:15.497Z,77.70
2022-12-31T10:27:15.492Z,77.90
2022-12-31T10:28:17.514Z,78.30
2022-12-31T10:29:15.463Z,77.70
2022-12-31T10:30:15.485Z,76.48
2022-12-31T10:31:15.525Z,77.70
2022-12-31T10:32:15.456Z,76.95
2022-12-31T10:33:16.017Z,75.98
2022-12-31T10:34:15.438Z,76.69
2022-12-31T10:35:18.018Z,75.88
2022-12-31T10:36:15.419Z,75.54
2022-12-31T10:37:15.412Z,77.26
2022-12-31T10:38:15.401Z,76.65
2022-12-31T10:39:20.568Z,76.55
2022-12-31T10:40:17.457Z,76.75
2022-12-31T10:41:15.397Z,77.56
2022-12-31T10:42:15.374Z,75.95
2022-12-31T10:43:15.355Z,75.64
2022-12-31T10:44:15.362Z,76.55
2022-12-31T10:45:15.345Z,75.71
2022-12-31T10:46:22.466Z,76.01
2022-12-31T10:47:17.324Z,75.16
2022-12-31T10:48:15.317Z,75.40
2022-12-31T10:49:15.310Z,74.36
2022-12-31T10:50:15.310Z,75.00
2022-12-31T10:51:15.313Z,75.40
2022-12-31T10:52:15.305Z,75.81
2022-12-31T10:53:15.281Z,75.91
2022-12-31T10:54:15.292Z,75.60
2022-12-31T10:55:15.284Z,75.81
2022-12-31T10:56:15.252Z,75.20
2022-12-31T10:57:15.257Z,75.40
2022-12-31T10:58:15.239Z,75.60
2022-12-31T10:59:15.230Z,75.91
2022-12-31T11:00:15.224Z,75.60
2022-12-31T11:01:15.271Z,74.80
2022-12-31T11:02:15.478Z,74.69
2022-12-31T11:03:15.236Z,75.13
2022-12-31T11:04:15.202Z,74.60
2022-12-31T11:05:15.189Z,75.60
2022-12-31T11:06:15.181Z,75.51
2022-12-31T11:07:15.164Z,76.11
2022-12-31T11:08:15.157Z,75.31
2022-12-31T11:09:15.158Z,75.31
2022-12-31T11:11:24.028Z,75.81
2022-12-31T11:12:24.287Z,76.15
2022-12-31T11:13:34.979Z,74.49
2022-12-31T11:14:23.273Z,75.91
2022-12-31T11:15:23.278Z,75.31
2022-12-31T11:16:23.303Z,76.01
2022-12-31T11:17:23.237Z,75.40
2022-12-31T11:18:24.326Z,75.40
2022-12-31T11:19:24.318Z,75.84
2022-12-31T11:20:24.310Z,75.64
2022-12-31T11:21:28.190Z,75.44
2022-12-31T11:22:25.304Z,75.74
2022-12-31T11:23:24.306Z,75.60
2022-12-31T11:24:57.398Z,76.01
2022-12-31T11:25:24.286Z,75.71
2022-12-31T11:26:24.261Z,74.29
2022-12-31T11:27:24.254Z,74.80
2022-12-31T11:28:24.290Z,75.20
2022-12-31T11:29:24.239Z,74.60
2022-12-31T11:30:24.235Z,74.80
2022-12-31T11:31:24.965Z,74.29
2022-12-31T11:32:24.262Z,74.80
2022-12-31T11:33:24.211Z,74.09
2022-12-31T11:34:24.200Z,75.60
2022-12-31T11:35:24.200Z,75.31
2022-12-31T11:36:24.190Z,76.04
2022-12-31T11:38:30.454Z,75.13
2022-12-31T11:39:31.409Z,74.29
2022-12-31T11:40:30.449Z,75.51
2022-12-31T11:41:33.315Z,75.44
2022-12-31T11:42:31.524Z,75.81
2022-12-31T11:43:31.516Z,75.60
2022-12-31T11:44:31.501Z,75.31
2022-12-31T11:45:31.522Z,75.31
2022-12-31T11:46:31.550Z,75.81
2022-12-31T11:47:31.490Z,75.91
2022-12-31T11:48:32.399Z,75.51
2022-12-31T11:49:31.472Z,75.40
2022-12-31T11:50:31.464Z,75.00
2022-12-31T11:51:31.461Z,74.49
2022-12-31T11:52:31.453Z,75.77
2022-12-31T11:53:31.443Z,75.16
2022-12-31T11:54:31.431Z,75.27
2022-12-31T11:55:31.417Z,75.37
2022-12-31T11:56:31.437Z,75.60
2022-12-31T11:57:31.429Z,74.40
2022-12-31T11:58:31.948Z,74.69
2022-12-31T11:59:31.402Z,75.74
2022-12-31T12:00:31.382Z,74.69
2022-12-31T12:01:31.435Z,75.60
2022-12-31T12:02:31.413Z,74.80
2022-12-31T12:03:31.404Z,74.76
2022-12-31T12:04:31.351Z,74.36
2022-12-31T12:05:31.356Z,74.76
2022-12-31T12:06:31.331Z,75.51
2022-12-31T12:07:31.333Z,75.00
2022-12-31T12:08:31.904Z,75.91
2022-12-31T12:09:31.895Z,75.81
2022-12-31T12:10:36.176Z,75.84
2022-12-31T12:11:33.287Z,74.40
2022-12-31T12:12:31.909Z,75.31
2022-12-31T12:13:31.279Z,75.71
2022-12-31T12:14:31.288Z,75.51
2022-12-31T12:15:32.926Z,75.91
2022-12-31T12:16:31.321Z,75.44
2022-12-31T12:17:31.248Z,74.63
2022-12-31T12:18:31.240Z,75.64
2022-12-31T12:19:31.828Z,75.24
2022-12-31T12:20:31.246Z,75.84
2022-12-31T12:21:31.207Z,75.81
2022-12-31T12:22:31.193Z,75.10
2022-12-31T12:23:31.187Z,75.44
2022-12-31T12:24:31.184Z,75.40
2022-12-31T12:25:31.181Z,75.95
2022-12-31T12:26:31.169Z,74.80
2022-12-31T12:27:31.188Z,75.84
2022-12-31T12:28:31.191Z,75.34
2022-12-31T12:29:31.155Z,75.60
2022-12-31T12:30:32.136Z,75.40
2022-12-31T12:31:31.149Z,75.60
2022-12-31T12:32:31.156Z,74.29
2022-12-31T12:33:31.171Z,74.13
2022-12-31T12:34:31.105Z,74.33
2022-12-31T12:35:31.106Z,76.15
2022-12-31T12:36:31.085Z,75.95
2022-12-31T12:37:31.446Z,75.34
2022-12-31T12:38:31.093Z,75.60
2022-12-31T12:39:31.944Z,75.54
2022-12-31T12:40:34.069Z,75.95
2022-12-31T12:41:32.037Z,75.71
2022-12-31T12:42:31.070Z,75.51
2022-12-31T12:43:31.032Z,75.64
2022-12-31T12:44:31.016Z,75.71
2022-12-31T12:45:31.010Z,75.81
2022-12-31T12:46:31.081Z,75.95
2022-12-31T12:47:30.996Z,74.60
2022-12-31T12:48:30.980Z,75.81
2022-12-31T12:49:31.841Z,74.80
2022-12-31T12:50:30.966Z,75.10
2022-12-31T12:51:30.963Z,74.19
2022-12-31T12:52:30.963Z,74.49
2022-12-31T12:53:30.975Z,74.69
2022-12-31T12:54:31.928Z,75.10
2022-12-31T12:55:30.932Z,75.44
2022-12-31T12:56:30.915Z,75.54